Time;durP1;ratioP1;P1;durP2;ratioP2;P2;SDS_P1;SDS_P2;PMS_P1;PMS_P2;Temp;Humidity;BMP_temperature;BMP_pressure;BME280_temperature;BME280_humidity;BME280_pressure;Samples;Min_cycle;Max_cycle;Signal;HPM_P1;HPM_P2
2022/09/12 00:00:00;;;;;;;4.649999;3.95;;;;;;;10.37;97.03516;95551.31;;;;
2022/09/12 00:01:01;;;;;;;4.649999;3.95;;;;;;;10.37;97.03516;95551.31;;;;
2022/09/12 00:02:04;;;;;;;4.649999;3.95;;;;;;;10.37;97.03516;95551.31;;;;
2022/09/12 00:03:04;;;;;;;4.649999;3.95;;;;;;;10.37;97.03516;95551.31;;;;
2022/09/12 00:04:05;;;;;;;4.75;4.100001;;;;;;;10.28;97.07813;95553.05;;;;
2022/09/12 00:05:06;;;;;;;4.75;4.100001;;;;;;;10.28;97.07813;95553.05;;;;
2022/09/12 00:06:06;;;;;;;4.75;4.100001;;;;;;;10.28;97.07813;95553.05;;;;
2022/09/12 00:07:10;;;;;;;4.75;4.100001;;;;;;;10.28;97.07813;95553.05;;;;
2022/09/12 00:08:11;;;;;;;4.75;4.100001;;;;;;;10.28;97.07813;95553.05;;;;
2022/09/12 00:09:13;;;;;;;4.75;4.100001;;;;;;;10.28;97.07813;95553.05;;;;
2022/09/12 00:10:14;;;;;;;4.75;4.100001;;;;;;;10.28;97.07813;95553.05;;;;
2022/09/12 00:11:14;;;;;;;4.75;4.100001;;;;;;;10.28;97.07813;95553.05;;;;
2022/09/12 00:12:15;;;;;;;4.75;4.100001;;;;;;;10.28;97.07813;95553.05;;;;
2022/09/12 00:13:15;;;;;;;4.75;4.100001;;;;;;;10.28;97.07813;95553.05;;;;
2022/09/12 00:14:16;;;;;;;4.75;4.100001;;;;;;;10.28;97.07813;95553.05;;;;
2022/09/12 00:15:18;;;;;;;4.85;4.35;;;;;;;10.18;96.95898;95538.1;;;;
2022/09/12 00:16:18;;;;;;;4.85;4.35;;;;;;;10.18;96.95898;95538.1;;;;
2022/09/12 00:17:21;;;;;;;4.85;4.35;;;;;;;10.18;96.95898;95538.1;;;;
2022/09/12 00:18:21;;;;;;;4.85;4.35;;;;;;;10.18;96.95898;95538.1;;;;
2022/09/12 00:19:22;;;;;;;4.85;4.35;;;;;;;10.18;96.95898;95538.1;;;;
2022/09/12 00:20:23;;;;;;;4.85;4.35;;;;;;;10.18;96.95898;95538.1;;;;
2022/09/12 00:21:24;;;;;;;4.85;4.35;;;;;;;10.18;96.95898;95538.1;;;;
2022/09/12 00:22:26;;;;;;;4.85;4.35;;;;;;;10.18;96.95898;95538.1;;;;
2022/09/12 00:23:26;;;;;;;4.85;4.35;;;;;;;10.18;96.95898;95538.1;;;;
2022/09/12 00:24:27;;;;;;;4.85;4.35;;;;;;;10.18;96.95898;95538.1;;;;
2022/09/12 00:25:29;;;;;;;5.55;4.4;;;;;;;10.01;96.90234;95532.78;;;;
2022/09/12 00:26:30;;;;;;;5.55;4.4;;;;;;;10.01;96.90234;95532.78;;;;
2022/09/12 00:27:30;;;;;;;5.55;4.4;;;;;;;10.01;96.90234;95532.78;;;;
2022/09/12 00:28:31;;;;;;;5.55;4.4;;;;;;;10.01;96.90234;95532.78;;;;
2022/09/12 00:29:32;;;;;;;5.55;4.4;;;;;;;10.01;96.90234;95532.78;;;;
2022/09/12 00:30:33;;;;;;;5.55;4.4;;;;;;;10.01;96.90234;95532.78;;;;
2022/09/12 00:31:34;;;;;;;5.55;4.4;;;;;;;10.01;96.90234;95532.78;;;;
2022/09/12 00:32:34;;;;;;;5.55;4.4;;;;;;;10.01;96.90234;95532.78;;;;
2022/09/12 00:33:35;;;;;;;5.55;4.4;;;;;;;10.01;96.90234;95532.78;;;;
2022/09/12 00:34:36;;;;;;;5.55;4.4;;;;;;;10.01;96.90234;95532.78;;;;
2022/09/12 00:35:36;;;;;;;5.55;4.4;;;;;;;10.01;96.90234;95532.78;;;;
2022/09/12 00:36:41;;;;;;;4.199999;3.750001;;;;;;;9.87;97.01074;95534.28;;;;
2022/09/12 00:37:41;;;;;;;4.199999;3.750001;;;;;;;9.87;97.01074;95534.28;;;;
2022/09/12 00:38:42;;;;;;;4.199999;3.750001;;;;;;;9.87;97.01074;95534.28;;;;
2022/09/12 00:39:44;;;;;;;4.199999;3.750001;;;;;;;9.87;97.01074;95534.28;;;;
2022/09/12 00:40:44;;;;;;;4.199999;3.750001;;;;;;;9.87;97.01074;95534.28;;;;
2022/09/12 00:41:45;;;;;;;4.199999;3.750001;;;;;;;9.87;97.01074;95534.28;;;;
2022/09/12 00:42:46;;;;;;;4.199999;3.750001;;;;;;;9.87;97.01074;95534.28;;;;
2022/09/12 00:43:47;;;;;;;4.199999;3.750001;;;;;;;9.87;97.01074;95534.28;;;;
2022/09/12 00:44:49;;;;;;;4.199999;3.750001;;;;;;;9.87;97.01074;95534.28;;;;
2022/09/12 00:45:51;;;;;;;4.199999;3.750001;;;;;;;9.87;97.01074;95534.28;;;;
2022/09/12 00:46:52;;;;;;;3.900001;3.5;;;;;;;9.71;97.11328;95521.84;;;;
2022/09/12 00:47:56;;;;;;;3.900001;3.5;;;;;;;9.71;97.11328;95521.84;;;;
2022/09/12 00:49:00;;;;;;;3.900001;3.5;;;;;;;9.71;97.11328;95521.84;;;;
2022/09/12 00:50:05;;;;;;;3.900001;3.5;;;;;;;9.71;97.11328;95521.84;;;;
2022/09/12 00:51:08;;;;;;;3.900001;3.5;;;;;;;9.71;97.11328;95521.84;;;;
2022/09/12 00:52:10;;;;;;;3.900001;3.5;;;;;;;9.71;97.11328;95521.84;;;;
2022/09/12 00:53:14;;;;;;;3.900001;3.5;;;;;;;9.71;97.11328;95521.84;;;;
2022/09/12 00:54:14;;;;;;;3.900001;3.5;;;;;;;9.71;97.11328;95521.84;;;;
2022/09/12 00:55:21;;;;;;;3.900001;3.5;;;;;;;9.71;97.11328;95521.84;;;;
2022/09/12 00:56:25;;;;;;;3.900001;3.5;;;;;;;9.71;97.11328;95521.84;;;;
2022/09/12 00:57:26;;;;;;;4;3.65;;;;;;;9.64;97.21387;95513.95;;;;
2022/09/12 00:58:32;;;;;;;4;3.65;;;;;;;9.64;97.21387;95513.95;;;;
2022/09/12 00:59:39;;;;;;;4;3.65;;;;;;;9.64;97.21387;95513.95;;;;
2022/09/12 01:00:43;;;;;;;4;3.65;;;;;;;9.64;97.21387;95513.95;;;;
2022/09/12 01:01:45;;;;;;;4;3.65;;;;;;;9.64;97.21387;95513.95;;;;
2022/09/12 01:02:48;;;;;;;4;3.65;;;;;;;9.64;97.21387;95513.95;;;;
2022/09/12 01:03:53;;;;;;;4;3.65;;;;;;;9.64;97.21387;95513.95;;;;
2022/09/12 01:04:54;;;;;;;4;3.65;;;;;;;9.64;97.21387;95513.95;;;;
2022/09/12 01:05:55;;;;;;;4;3.65;;;;;;;9.64;97.21387;95513.95;;;;
2022/09/12 01:07:01;;;;;;;4;3.65;;;;;;;9.64;97.21387;95513.95;;;;
2022/09/12 01:08:05;;;;;;;3.8;3.5;;;;;;;9.52;97.1123;95505.47;;;;
2022/09/12 01:09:06;;;;;;;3.8;3.5;;;;;;;9.52;97.1123;95505.47;;;;
2022/09/12 01:10:07;;;;;;;3.8;3.5;;;;;;;9.52;97.1123;95505.47;;;;
2022/09/12 01:11:09;;;;;;;3.8;3.5;;;;;;;9.52;97.1123;95505.47;;;;
2022/09/12 01:12:11;;;;;;;3.8;3.5;;;;;;;9.52;97.1123;95505.47;;;;
2022/09/12 01:13:14;;;;;;;3.8;3.5;;;;;;;9.52;97.1123;95505.47;;;;
2022/09/12 01:14:14;;;;;;;3.8;3.5;;;;;;;9.52;97.1123;95505.47;;;;
2022/09/12 01:15:16;;;;;;;3.8;3.5;;;;;;;9.52;97.1123;95505.47;;;;
2022/09/12 01:16:17;;;;;;;3.8;3.5;;;;;;;9.52;97.1123;95505.47;;;;
2022/09/12 01:17:18;;;;;;;3.8;3.5;;;;;;;9.52;97.1123;95505.47;;;;
2022/09/12 01:18:18;;;;;;;3.8;3.5;;;;;;;9.52;97.1123;95505.47;;;;
2022/09/12 01:19:26;;;;;;;3.95;3.6;;;;;;;9.4;97.22461;95494.8;;;;
2022/09/12 01:20:46;;;;;;;3.95;3.6;;;;;;;9.4;97.22461;95494.8;;;;
2022/09/12 01:21:59;;;;;;;3.95;3.6;;;;;;;9.4;97.22461;95494.8;;;;
2022/09/12 01:23:19;;;;;;;3.95;3.6;;;;;;;9.4;97.22461;95494.8;;;;
2022/09/12 01:24:42;;;;;;;3.95;3.6;;;;;;;9.4;97.22461;95494.8;;;;
2022/09/12 01:25:53;;;;;;;3.95;3.6;;;;;;;9.4;97.22461;95494.8;;;;
2022/09/12 01:27:12;;;;;;;3.95;3.6;;;;;;;9.4;97.22461;95494.8;;;;
2022/09/12 01:28:32;;;;;;;3.95;3.6;;;;;;;9.4;97.22461;95494.8;;;;
2022/09/12 01:29:55;;;;;;;5.25;3.6;;;;;;;9.29;97.29492;95482.2;;;;
2022/09/12 01:31:17;;;;;;;5.25;3.6;;;;;;;9.29;97.29492;95482.2;;;;
2022/09/12 01:32:23;;;;;;;5.25;3.6;;;;;;;9.29;97.29492;95482.2;;;;
2022/09/12 01:33:33;;;;;;;5.25;3.6;;;;;;;9.29;97.29492;95482.2;;;;
2022/09/12 01:34:41;;;;;;;5.25;3.6;;;;;;;9.29;97.29492;95482.2;;;;
2022/09/12 01:35:49;;;;;;;5.25;3.6;;;;;;;9.29;97.29492;95482.2;;;;
2022/09/12 01:37:05;;;;;;;5.25;3.6;;;;;;;9.29;97.29492;95482.2;;;;
2022/09/12 01:38:13;;;;;;;5.25;3.6;;;;;;;9.29;97.29492;95482.2;;;;
2022/09/12 01:39:24;;;;;;;5.25;3.6;;;;;;;9.29;97.29492;95482.2;;;;
2022/09/12 01:40:34;;;;;;;5.25;3.65;;;;;;;9.2;97.39355;95478.92;;;;
2022/09/12 01:41:43;;;;;;;5.25;3.65;;;;;;;9.2;97.39355;95478.92;;;;
2022/09/12 01:42:53;;;;;;;5.25;3.65;;;;;;;9.2;97.39355;95478.92;;;;
2022/09/12 01:44:08;;;;;;;5.25;3.65;;;;;;;9.2;97.39355;95478.92;;;;
2022/09/12 01:45:17;;;;;;;5.25;3.65;;;;;;;9.2;97.39355;95478.92;;;;
2022/09/12 01:46:24;;;;;;;5.25;3.65;;;;;;;9.2;97.39355;95478.92;;;;
2022/09/12 01:47:32;;;;;;;5.25;3.65;;;;;;;9.2;97.39355;95478.92;;;;
2022/09/12 01:48:39;;;;;;;5.25;3.65;;;;;;;9.2;97.39355;95478.92;;;;
2022/09/12 01:49:45;;;;;;;5.25;3.65;;;;;;;9.2;97.39355;95478.92;;;;
2022/09/12 01:50:54;;;;;;;4.2;3.75;;;;;;;9.1;97.43652;95480.2;;;;
2022/09/12 01:52:02;;;;;;;4.2;3.75;;;;;;;9.1;97.43652;95480.2;;;;
2022/09/12 01:53:11;;;;;;;4.2;3.75;;;;;;;9.1;97.43652;95480.2;;;;
2022/09/12 01:54:16;;;;;;;4.2;3.75;;;;;;;9.1;97.43652;95480.2;;;;
2022/09/12 01:55:21;;;;;;;4.2;3.75;;;;;;;9.1;97.43652;95480.2;;;;
2022/09/12 01:56:28;;;;;;;4.2;3.75;;;;;;;9.1;97.43652;95480.2;;;;
2022/09/12 01:57:33;;;;;;;4.2;3.75;;;;;;;9.1;97.43652;95480.2;;;;
2022/09/12 01:58:38;;;;;;;4.2;3.75;;;;;;;9.1;97.43652;95480.2;;;;
2022/09/12 01:59:43;;;;;;;4.2;3.75;;;;;;;9.1;97.43652;95480.2;;;;
2022/09/12 02:00:49;;;;;;;4.2;3.75;;;;;;;9.1;97.43652;95480.2;;;;
2022/09/12 02:01:54;;;;;;;4;3.6;;;;;;;9.02;97.4707;95466.29;;;;
2022/09/12 02:03:01;;;;;;;4;3.6;;;;;;;9.02;97.4707;95466.29;;;;
2022/09/12 02:04:08;;;;;;;4;3.6;;;;;;;9.02;97.4707;95466.29;;;;
2022/09/12 02:05:14;;;;;;;4;3.6;;;;;;;9.02;97.4707;95466.29;;;;
2022/09/12 02:06:19;;;;;;;4;3.6;;;;;;;9.02;97.4707;95466.29;;;;
2022/09/12 02:07:26;;;;;;;4;3.6;;;;;;;9.02;97.4707;95466.29;;;;
2022/09/12 02:08:32;;;;;;;4;3.6;;;;;;;9.02;97.4707;95466.29;;;;
2022/09/12 02:09:39;;;;;;;4;3.6;;;;;;;9.02;97.4707;95466.29;;;;
2022/09/12 02:10:44;;;;;;;4;3.6;;;;;;;9.02;97.4707;95466.29;;;;
2022/09/12 02:11:50;;;;;;;4;3.6;;;;;;;9.02;97.4707;95466.29;;;;
2022/09/12 02:12:55;;;;;;;4.849999;3.5;;;;;;;8.98;97.44141;95458.04;;;;
2022/09/12 02:14:01;;;;;;;4.849999;3.5;;;;;;;8.98;97.44141;95458.04;;;;
2022/09/12 02:15:07;;;;;;;4.849999;3.5;;;;;;;8.98;97.44141;95458.04;;;;
2022/09/12 02:16:11;;;;;;;4.849999;3.5;;;;;;;8.98;97.44141;95458.04;;;;
2022/09/12 02:17:16;;;;;;;4.849999;3.5;;;;;;;8.98;97.44141;95458.04;;;;
2022/09/12 02:18:20;;;;;;;4.849999;3.5;;;;;;;8.98;97.44141;95458.04;;;;
2022/09/12 02:19:20;;;;;;;4.849999;3.5;;;;;;;8.98;97.44141;95458.04;;;;
2022/09/12 02:20:26;;;;;;;4.849999;3.5;;;;;;;8.98;97.44141;95458.04;;;;
2022/09/12 02:21:31;;;;;;;4.849999;3.5;;;;;;;8.98;97.44141;95458.04;;;;
2022/09/12 02:22:35;;;;;;;4.849999;3.5;;;;;;;8.98;97.44141;95458.04;;;;
2022/09/12 02:23:37;;;;;;;4.25;3.45;;;;;;;8.87;97.26953;95448.49;;;;
2022/09/12 02:24:44;;;;;;;4.25;3.45;;;;;;;8.87;97.26953;95448.49;;;;
2022/09/12 02:25:49;;;;;;;4.25;3.45;;;;;;;8.87;97.26953;95448.49;;;;
2022/09/12 02:26:53;;;;;;;4.25;3.45;;;;;;;8.87;97.26953;95448.49;;;;
2022/09/12 02:27:58;;;;;;;4.25;3.45;;;;;;;8.87;97.26953;95448.49;;;;
2022/09/12 02:29:03;;;;;;;4.25;3.45;;;;;;;8.87;97.26953;95448.49;;;;
2022/09/12 02:30:05;;;;;;;4.25;3.45;;;;;;;8.87;97.26953;95448.49;;;;
2022/09/12 02:31:08;;;;;;;4.25;3.45;;;;;;;8.87;97.26953;95448.49;;;;
2022/09/12 02:32:16;;;;;;;4.25;3.45;;;;;;;8.87;97.26953;95448.49;;;;
2022/09/12 02:33:27;;;;;;;4.25;3.25;;;;;;;8.78;97.38477;95443.17;;;;
2022/09/12 02:34:38;;;;;;;4.25;3.25;;;;;;;8.78;97.38477;95443.17;;;;
2022/09/12 02:35:46;;;;;;;4.25;3.25;;;;;;;8.78;97.38477;95443.17;;;;
2022/09/12 02:36:53;;;;;;;4.25;3.25;;;;;;;8.78;97.38477;95443.17;;;;
2022/09/12 02:38:05;;;;;;;4.25;3.25;;;;;;;8.78;97.38477;95443.17;;;;
2022/09/12 02:39:10;;;;;;;4.25;3.25;;;;;;;8.78;97.38477;95443.17;;;;
2022/09/12 02:40:10;;;;;;;4.25;3.25;;;;;;;8.78;97.38477;95443.17;;;;
2022/09/12 02:41:12;;;;;;;4.25;3.25;;;;;;;8.78;97.38477;95443.17;;;;
2022/09/12 02:42:16;;;;;;;4.25;3.25;;;;;;;8.78;97.38477;95443.17;;;;
2022/09/12 02:43:17;;;;;;;4.25;3.25;;;;;;;8.78;97.38477;95443.17;;;;
2022/09/12 02:44:17;;;;;;;4.65;3.45;;;;;;;8.77;97.47852;95441.03;;;;
2022/09/12 02:45:19;;;;;;;4.65;3.45;;;;;;;8.77;97.47852;95441.03;;;;
2022/09/12 02:46:20;;;;;;;4.65;3.45;;;;;;;8.77;97.47852;95441.03;;;;
2022/09/12 02:47:24;;;;;;;4.65;3.45;;;;;;;8.77;97.47852;95441.03;;;;
2022/09/12 02:48:31;;;;;;;4.65;3.45;;;;;;;8.77;97.47852;95441.03;;;;
2022/09/12 02:49:37;;;;;;;4.65;3.45;;;;;;;8.77;97.47852;95441.03;;;;
2022/09/12 02:50:37;;;;;;;4.65;3.45;;;;;;;8.77;97.47852;95441.03;;;;
2022/09/12 02:51:39;;;;;;;4.65;3.45;;;;;;;8.77;97.47852;95441.03;;;;
2022/09/12 02:52:40;;;;;;;4.65;3.45;;;;;;;8.77;97.47852;95441.03;;;;
2022/09/12 02:53:42;;;;;;;4.65;3.45;;;;;;;8.77;97.47852;95441.03;;;;
2022/09/12 02:54:43;;;;;;;3.6;3.3;;;;;;;8.73;97.30176;95432.32;;;;
2022/09/12 02:55:44;;;;;;;3.6;3.3;;;;;;;8.73;97.30176;95432.32;;;;
2022/09/12 02:56:45;;;;;;;3.6;3.3;;;;;;;8.73;97.30176;95432.32;;;;
2022/09/12 02:57:45;;;;;;;3.6;3.3;;;;;;;8.73;97.30176;95432.32;;;;
2022/09/12 02:58:46;;;;;;;3.6;3.3;;;;;;;8.73;97.30176;95432.32;;;;
2022/09/12 02:59:47;;;;;;;3.6;3.3;;;;;;;8.73;97.30176;95432.32;;;;
2022/09/12 03:00:52;;;;;;;3.6;3.3;;;;;;;8.73;97.30176;95432.32;;;;
2022/09/12 03:01:59;;;;;;;3.6;3.3;;;;;;;8.73;97.30176;95432.32;;;;
2022/09/12 03:03:11;;;;;;;3.6;3.3;;;;;;;8.73;97.30176;95432.32;;;;
2022/09/12 03:04:30;;;;;;;3.6;3.3;;;;;;;8.73;97.30176;95432.32;;;;
2022/09/12 03:05:46;;;;;;;3.85;3.5;;;;;;;8.67;97.16992;95425.17;;;;
2022/09/12 03:06:56;;;;;;;3.85;3.5;;;;;;;8.67;97.16992;95425.17;;;;
2022/09/12 03:08:10;;;;;;;3.85;3.5;;;;;;;8.67;97.16992;95425.17;;;;
2022/09/12 03:09:18;;;;;;;3.85;3.5;;;;;;;8.67;97.16992;95425.17;;;;
2022/09/12 03:10:27;;;;;;;3.85;3.5;;;;;;;8.67;97.16992;95425.17;;;;
2022/09/12 03:11:36;;;;;;;3.85;3.5;;;;;;;8.67;97.16992;95425.17;;;;
2022/09/12 03:12:54;;;;;;;3.85;3.5;;;;;;;8.67;97.16992;95425.17;;;;
2022/09/12 03:14:07;;;;;;;3.85;3.5;;;;;;;8.67;97.16992;95425.17;;;;
2022/09/12 03:15:21;;;;;;;3.85;3.5;;;;;;;8.67;97.16992;95425.17;;;;
2022/09/12 03:16:31;;;;;;;5.6;3.25;;;;;;;8.54;97.08594;95426.96;;;;
2022/09/12 03:17:40;;;;;;;5.6;3.25;;;;;;;8.54;97.08594;95426.96;;;;
2022/09/12 03:18:53;;;;;;;5.6;3.25;;;;;;;8.54;97.08594;95426.96;;;;
2022/09/12 03:19:59;;;;;;;5.6;3.25;;;;;;;8.54;97.08594;95426.96;;;;
2022/09/12 03:21:06;;;;;;;5.6;3.25;;;;;;;8.54;97.08594;95426.96;;;;
2022/09/12 03:22:12;;;;;;;5.6;3.25;;;;;;;8.54;97.08594;95426.96;;;;
2022/09/12 03:23:19;;;;;;;5.6;3.25;;;;;;;8.54;97.08594;95426.96;;;;
2022/09/12 03:24:28;;;;;;;5.6;3.25;;;;;;;8.54;97.08594;95426.96;;;;
2022/09/12 03:25:33;;;;;;;5.6;3.25;;;;;;;8.54;97.08594;95426.96;;;;
2022/09/12 03:26:39;;;;;;;5.6;3.25;;;;;;;8.54;97.08594;95426.96;;;;
2022/09/12 03:27:45;;;;;;;5.75;3.5;;;;;;;8.48;97.23242;95425.09;;;;
2022/09/12 03:28:55;;;;;;;5.75;3.5;;;;;;;8.48;97.23242;95425.09;;;;
2022/09/12 03:29:56;;;;;;;5.75;3.5;;;;;;;8.48;97.23242;95425.09;;;;
2022/09/12 03:30:58;;;;;;;5.75;3.5;;;;;;;8.48;97.23242;95425.09;;;;
2022/09/12 03:31:59;;;;;;;5.75;3.5;;;;;;;8.48;97.23242;95425.09;;;;
2022/09/12 03:32:59;;;;;;;5.75;3.5;;;;;;;8.48;97.23242;95425.09;;;;
2022/09/12 03:34:00;;;;;;;5.75;3.5;;;;;;;8.48;97.23242;95425.09;;;;
2022/09/12 03:35:00;;;;;;;5.75;3.5;;;;;;;8.48;97.23242;95425.09;;;;
2022/09/12 03:36:01;;;;;;;5.75;3.5;;;;;;;8.48;97.23242;95425.09;;;;
2022/09/12 03:37:02;;;;;;;5.75;3.5;;;;;;;8.48;97.23242;95425.09;;;;
2022/09/12 03:38:03;;;;;;;5.6;3.45;;;;;;;8.36;97.15234;95421.8;;;;
2022/09/12 03:39:04;;;;;;;5.6;3.45;;;;;;;8.36;97.15234;95421.8;;;;
2022/09/12 03:40:05;;;;;;;5.6;3.45;;;;;;;8.36;97.15234;95421.8;;;;
2022/09/12 03:41:07;;;;;;;5.6;3.45;;;;;;;8.36;97.15234;95421.8;;;;
2022/09/12 03:42:08;;;;;;;5.6;3.45;;;;;;;8.36;97.15234;95421.8;;;;
2022/09/12 03:43:08;;;;;;;5.6;3.45;;;;;;;8.36;97.15234;95421.8;;;;
2022/09/12 03:44:10;;;;;;;5.6;3.45;;;;;;;8.36;97.15234;95421.8;;;;
2022/09/12 03:45:10;;;;;;;5.6;3.45;;;;;;;8.36;97.15234;95421.8;;;;
2022/09/12 03:46:11;;;;;;;5.6;3.45;;;;;;;8.36;97.15234;95421.8;;;;
2022/09/12 03:47:12;;;;;;;5.6;3.45;;;;;;;8.36;97.15234;95421.8;;;;
2022/09/12 03:48:13;;;;;;;3.4;3.1;;;;;;;8.25;97.32031;95420.63;;;;
2022/09/12 03:49:13;;;;;;;3.4;3.1;;;;;;;8.25;97.32031;95420.63;;;;
2022/09/12 03:50:14;;;;;;;3.4;3.1;;;;;;;8.25;97.32031;95420.63;;;;
2022/09/12 03:51:14;;;;;;;3.4;3.1;;;;;;;8.25;97.32031;95420.63;;;;
2022/09/12 03:52:15;;;;;;;3.4;3.1;;;;;;;8.25;97.32031;95420.63;;;;
2022/09/12 03:53:15;;;;;;;3.4;3.1;;;;;;;8.25;97.32031;95420.63;;;;
2022/09/12 03:54:16;;;;;;;3.4;3.1;;;;;;;8.25;97.32031;95420.63;;;;
2022/09/12 03:55:17;;;;;;;3.4;3.1;;;;;;;8.25;97.32031;95420.63;;;;
2022/09/12 03:56:18;;;;;;;3.4;3.1;;;;;;;8.25;97.32031;95420.63;;;;
2022/09/12 03:57:19;;;;;;;3.4;3.1;;;;;;;8.25;97.32031;95420.63;;;;
2022/09/12 03:58:20;;;;;;;3.4;3.1;;;;;;;8.25;97.32031;95420.63;;;;
2022/09/12 03:59:20;;;;;;;4.199999;3.45;;;;;;;8.17;97.47363;95421.95;;;;
2022/09/12 04:00:20;;;;;;;4.199999;3.45;;;;;;;8.17;97.47363;95421.95;;;;
2022/09/12 04:01:22;;;;;;;4.199999;3.45;;;;;;;8.17;97.47363;95421.95;;;;
2022/09/12 04:02:22;;;;;;;4.199999;3.45;;;;;;;8.17;97.47363;95421.95;;;;
2022/09/12 04:03:23;;;;;;;4.199999;3.45;;;;;;;8.17;97.47363;95421.95;;;;
2022/09/12 04:04:24;;;;;;;4.199999;3.45;;;;;;;8.17;97.47363;95421.95;;;;
2022/09/12 04:05:24;;;;;;;4.199999;3.45;;;;;;;8.17;97.47363;95421.95;;;;
2022/09/12 04:06:25;;;;;;;4.199999;3.45;;;;;;;8.17;97.47363;95421.95;;;;
2022/09/12 04:07:26;;;;;;;4.199999;3.45;;;;;;;8.17;97.47363;95421.95;;;;
2022/09/12 04:08:27;;;;;;;4.199999;3.45;;;;;;;8.17;97.47363;95421.95;;;;
2022/09/12 04:09:28;;;;;;;4.199999;3.6;;;;;;;8.19;97.58398;95416;;;;
2022/09/12 04:10:28;;;;;;;4.199999;3.6;;;;;;;8.19;97.58398;95416;;;;
2022/09/12 04:11:31;;;;;;;4.199999;3.6;;;;;;;8.19;97.58398;95416;;;;
2022/09/12 04:12:31;;;;;;;4.199999;3.6;;;;;;;8.19;97.58398;95416;;;;
2022/09/12 04:13:32;;;;;;;4.199999;3.6;;;;;;;8.19;97.58398;95416;;;;
2022/09/12 04:14:33;;;;;;;4.199999;3.6;;;;;;;8.19;97.58398;95416;;;;
2022/09/12 04:15:34;;;;;;;4.199999;3.6;;;;;;;8.19;97.58398;95416;;;;
2022/09/12 04:16:34;;;;;;;4.199999;3.6;;;;;;;8.19;97.58398;95416;;;;
2022/09/12 04:17:35;;;;;;;4.199999;3.6;;;;;;;8.19;97.58398;95416;;;;
2022/09/12 04:18:35;;;;;;;4.199999;3.6;;;;;;;8.19;97.58398;95416;;;;
2022/09/12 04:19:36;;;;;;;4.199999;3.6;;;;;;;8.19;97.58398;95416;;;;
2022/09/12 04:20:37;;;;;;;3.9;3.5;;;;;;;8.2;97.46973;95426.45;;;;
2022/09/12 04:21:38;;;;;;;3.9;3.5;;;;;;;8.2;97.46973;95426.45;;;;
2022/09/12 04:22:38;;;;;;;3.9;3.5;;;;;;;8.2;97.46973;95426.45;;;;
2022/09/12 04:23:39;;;;;;;3.9;3.5;;;;;;;8.2;97.46973;95426.45;;;;
2022/09/12 04:24:40;;;;;;;3.9;3.5;;;;;;;8.2;97.46973;95426.45;;;;
2022/09/12 04:25:40;;;;;;;3.9;3.5;;;;;;;8.2;97.46973;95426.45;;;;
2022/09/12 04:26:41;;;;;;;3.9;3.5;;;;;;;8.2;97.46973;95426.45;;;;
2022/09/12 04:27:41;;;;;;;3.9;3.5;;;;;;;8.2;97.46973;95426.45;;;;
2022/09/12 04:28:42;;;;;;;3.9;3.5;;;;;;;8.2;97.46973;95426.45;;;;
2022/09/12 04:29:43;;;;;;;3.9;3.5;;;;;;;8.2;97.46973;95426.45;;;;
2022/09/12 04:30:43;;;;;;;4.55;4;;;;;;;8.14;97.37012;95421.53;;;;
2022/09/12 04:31:44;;;;;;;4.55;4;;;;;;;8.14;97.37012;95421.53;;;;
2022/09/12 04:32:44;;;;;;;4.55;4;;;;;;;8.14;97.37012;95421.53;;;;
2022/09/12 04:33:45;;;;;;;4.55;4;;;;;;;8.14;97.37012;95421.53;;;;
2022/09/12 04:34:45;;;;;;;4.55;4;;;;;;;8.14;97.37012;95421.53;;;;
2022/09/12 04:35:46;;;;;;;4.55;4;;;;;;;8.14;97.37012;95421.53;;;;
2022/09/12 04:36:47;;;;;;;4.55;4;;;;;;;8.14;97.37012;95421.53;;;;
2022/09/12 04:37:47;;;;;;;4.55;4;;;;;;;8.14;97.37012;95421.53;;;;
2022/09/12 04:38:48;;;;;;;4.55;4;;;;;;;8.14;97.37012;95421.53;;;;
2022/09/12 04:39:50;;;;;;;4.55;4;;;;;;;8.14;97.37012;95421.53;;;;
2022/09/12 04:40:51;;;;;;;4.55;4;;;;;;;8.14;97.37012;95421.53;;;;
2022/09/12 04:41:52;;;;;;;3.85;3.45;;;;;;;8.12;97.65234;95422.63;;;;
2022/09/12 04:42:54;;;;;;;3.85;3.45;;;;;;;8.12;97.65234;95422.63;;;;
2022/09/12 04:43:57;;;;;;;3.85;3.45;;;;;;;8.12;97.65234;95422.63;;;;
2022/09/12 04:44:59;;;;;;;3.85;3.45;;;;;;;8.12;97.65234;95422.63;;;;
2022/09/12 04:45:59;;;;;;;3.85;3.45;;;;;;;8.12;97.65234;95422.63;;;;
2022/09/12 04:47:04;;;;;;;3.85;3.45;;;;;;;8.12;97.65234;95422.63;;;;
2022/09/12 04:48:05;;;;;;;3.85;3.45;;;;;;;8.12;97.65234;95422.63;;;;
2022/09/12 04:49:05;;;;;;;3.85;3.45;;;;;;;8.12;97.65234;95422.63;;;;
2022/09/12 04:50:07;;;;;;;3.85;3.45;;;;;;;8.12;97.65234;95422.63;;;;
2022/09/12 04:51:08;;;;;;;3.85;3.45;;;;;;;8.12;97.65234;95422.63;;;;
2022/09/12 04:52:11;;;;;;;4.5;3.55;;;;;;;8.26;97.99219;95414.76;;;;
2022/09/12 04:53:11;;;;;;;4.5;3.55;;;;;;;8.26;97.99219;95414.76;;;;
2022/09/12 04:54:12;;;;;;;4.5;3.55;;;;;;;8.26;97.99219;95414.76;;;;
2022/09/12 04:55:14;;;;;;;4.5;3.55;;;;;;;8.26;97.99219;95414.76;;;;
2022/09/12 04:56:15;;;;;;;4.5;3.55;;;;;;;8.26;97.99219;95414.76;;;;
2022/09/12 04:57:16;;;;;;;4.5;3.55;;;;;;;8.26;97.99219;95414.76;;;;
2022/09/12 04:58:17;;;;;;;4.5;3.55;;;;;;;8.26;97.99219;95414.76;;;;
2022/09/12 04:59:18;;;;;;;4.5;3.55;;;;;;;8.26;97.99219;95414.76;;;;
2022/09/12 05:00:20;;;;;;;4.5;3.55;;;;;;;8.26;97.99219;95414.76;;;;
2022/09/12 05:01:21;;;;;;;4.5;3.55;;;;;;;8.26;97.99219;95414.76;;;;
2022/09/12 05:02:22;;;;;;;4.5;3.55;;;;;;;8.26;97.99219;95414.76;;;;
2022/09/12 05:03:22;;;;;;;4;3.35;;;;;;;8.34;97.9873;95421.18;;;;
2022/09/12 05:04:23;;;;;;;4;3.35;;;;;;;8.34;97.9873;95421.18;;;;
2022/09/12 05:05:23;;;;;;;4;3.35;;;;;;;8.34;97.9873;95421.18;;;;
2022/09/12 05:06:24;;;;;;;4;3.35;;;;;;;8.34;97.9873;95421.18;;;;
2022/09/12 05:07:27;;;;;;;4;3.35;;;;;;;8.34;97.9873;95421.18;;;;
2022/09/12 05:08:27;;;;;;;4;3.35;;;;;;;8.34;97.9873;95421.18;;;;
2022/09/12 05:09:28;;;;;;;4;3.35;;;;;;;8.34;97.9873;95421.18;;;;
2022/09/12 05:10:29;;;;;;;4;3.35;;;;;;;8.34;97.9873;95421.18;;;;
2022/09/12 05:11:29;;;;;;;4;3.35;;;;;;;8.34;97.9873;95421.18;;;;
2022/09/12 05:12:32;;;;;;;4;3.35;;;;;;;8.34;97.9873;95421.18;;;;
2022/09/12 05:13:33;;;;;;;4;3.45;;;;;;;8.42;98.10254;95425.87;;;;
2022/09/12 05:14:34;;;;;;;4;3.45;;;;;;;8.42;98.10254;95425.87;;;;
2022/09/12 05:15:34;;;;;;;4;3.45;;;;;;;8.42;98.10254;95425.87;;;;
2022/09/12 05:16:35;;;;;;;4;3.45;;;;;;;8.42;98.10254;95425.87;;;;
2022/09/12 05:17:35;;;;;;;4;3.45;;;;;;;8.42;98.10254;95425.87;;;;
2022/09/12 05:18:36;;;;;;;4;3.45;;;;;;;8.42;98.10254;95425.87;;;;
2022/09/12 05:19:36;;;;;;;4;3.45;;;;;;;8.42;98.10254;95425.87;;;;
2022/09/12 05:20:37;;;;;;;4;3.45;;;;;;;8.42;98.10254;95425.87;;;;
2022/09/12 05:21:37;;;;;;;4;3.45;;;;;;;8.42;98.10254;95425.87;;;;
2022/09/12 05:22:38;;;;;;;4;3.45;;;;;;;8.42;98.10254;95425.87;;;;
2022/09/12 05:23:38;;;;;;;4;3.45;;;;;;;8.42;98.10254;95425.87;;;;
2022/09/12 05:24:42;;;;;;;4.3;3.75;;;;;;;8.61;98.25098;95427.4;;;;
2022/09/12 05:25:42;;;;;;;4.3;3.75;;;;;;;8.61;98.25098;95427.4;;;;
2022/09/12 05:26:47;;;;;;;4.3;3.75;;;;;;;8.61;98.25098;95427.4;;;;
2022/09/12 05:27:48;;;;;;;4.3;3.75;;;;;;;8.61;98.25098;95427.4;;;;
2022/09/12 05:28:51;;;;;;;4.3;3.75;;;;;;;8.61;98.25098;95427.4;;;;
2022/09/12 05:29:52;;;;;;;4.3;3.75;;;;;;;8.61;98.25098;95427.4;;;;
2022/09/12 05:30:52;;;;;;;4.3;3.75;;;;;;;8.61;98.25098;95427.4;;;;
2022/09/12 05:32:00;;;;;;;4.3;3.75;;;;;;;8.61;98.25098;95427.4;;;;
2022/09/12 05:33:01;;;;;;;4.3;3.75;;;;;;;8.61;98.25098;95427.4;;;;
2022/09/12 05:34:05;;;;;;;4.3;3.75;;;;;;;8.61;98.25098;95427.4;;;;
2022/09/12 05:35:07;;;;;;;4.65;4;;;;;;;8.83;98.24805;95441.58;;;;
2022/09/12 05:36:07;;;;;;;4.65;4;;;;;;;8.83;98.24805;95441.58;;;;
2022/09/12 05:37:11;;;;;;;4.65;4;;;;;;;8.83;98.24805;95441.58;;;;
2022/09/12 05:38:12;;;;;;;4.65;4;;;;;;;8.83;98.24805;95441.58;;;;
2022/09/12 05:39:12;;;;;;;4.65;4;;;;;;;8.83;98.24805;95441.58;;;;
2022/09/12 05:40:16;;;;;;;4.65;4;;;;;;;8.83;98.24805;95441.58;;;;
2022/09/12 05:41:16;;;;;;;4.65;4;;;;;;;8.83;98.24805;95441.58;;;;
2022/09/12 05:42:19;;;;;;;4.65;4;;;;;;;8.83;98.24805;95441.58;;;;
2022/09/12 05:43:19;;;;;;;4.65;4;;;;;;;8.83;98.24805;95441.58;;;;
2022/09/12 05:44:20;;;;;;;4.65;4;;;;;;;8.83;98.24805;95441.58;;;;
2022/09/12 05:45:20;;;;;;;4.65;4;;;;;;;8.83;98.24805;95441.58;;;;
2022/09/12 05:46:21;;;;;;;4.35;3.85;;;;;;;9.17;98.39844;95448.99;;;;
2022/09/12 05:47:23;;;;;;;4.35;3.85;;;;;;;9.17;98.39844;95448.99;;;;
2022/09/12 05:48:24;;;;;;;4.35;3.85;;;;;;;9.17;98.39844;95448.99;;;;
2022/09/12 05:49:24;;;;;;;4.35;3.85;;;;;;;9.17;98.39844;95448.99;;;;
2022/09/12 05:50:25;;;;;;;4.35;3.85;;;;;;;9.17;98.39844;95448.99;;;;
2022/09/12 05:51:26;;;;;;;4.35;3.85;;;;;;;9.17;98.39844;95448.99;;;;
2022/09/12 05:52:28;;;;;;;4.35;3.85;;;;;;;9.17;98.39844;95448.99;;;;
2022/09/12 05:53:28;;;;;;;4.35;3.85;;;;;;;9.17;98.39844;95448.99;;;;
2022/09/12 05:54:30;;;;;;;4.35;3.85;;;;;;;9.17;98.39844;95448.99;;;;
2022/09/12 05:55:32;;;;;;;4.35;3.85;;;;;;;9.17;98.39844;95448.99;;;;
2022/09/12 05:56:33;;;;;;;5.5;4.15;;;;;;;9.53;98.44922;95441.94;;;;
2022/09/12 05:57:37;;;;;;;5.5;4.15;;;;;;;9.53;98.44922;95441.94;;;;
2022/09/12 05:58:37;;;;;;;5.5;4.15;;;;;;;9.53;98.44922;95441.94;;;;
2022/09/12 05:59:42;;;;;;;5.5;4.15;;;;;;;9.53;98.44922;95441.94;;;;
2022/09/12 06:00:42;;;;;;;5.5;4.15;;;;;;;9.53;98.44922;95441.94;;;;
2022/09/12 06:01:43;;;;;;;5.5;4.15;;;;;;;9.53;98.44922;95441.94;;;;
2022/09/12 06:02:44;;;;;;;5.5;4.15;;;;;;;9.53;98.44922;95441.94;;;;
2022/09/12 06:03:50;;;;;;;5.5;4.15;;;;;;;9.53;98.44922;95441.94;;;;
2022/09/12 06:04:52;;;;;;;5.5;4.15;;;;;;;9.53;98.44922;95441.94;;;;
2022/09/12 06:05:53;;;;;;;5.5;4.15;;;;;;;9.53;98.44922;95441.94;;;;
2022/09/12 06:06:54;;;;;;;4.5;4.1;;;;;;;9.88;98.46094;95448.77;;;;